Time;durP1;ratioP1;P1;durP2;ratioP2;P2;SDS_P1;SDS_P2;PMS_P1;PMS_P2;Temp;Humidity;BMP_temperature;BMP_pressure;BME280_temperature;BME280_humidity;BME280_pressure;Samples;Min_cycle;Max_cycle;Signal;HPM_P1;HPM_P2
2022/02/13 08:06:34;;;;;;;10.74;5.14;;;0.40;99.90;;;;;;6248971;22;1514586;-78
2022/02/13 08:09:00;;;;;;;8.68;4.90;;;0.40;99.90;;;;;;6219649;23;20096;-77
2022/02/13 08:11:28;;;;;;;9.55;5.57;;;0.50;99.90;;;;;;6222702;23;20006;-78
2022/02/13 08:14:06;;;;;;;9.50;5.68;;;0.50;99.90;;;;;;6222334;23;20004;-76
2022/02/13 08:16:37;;;;;;;12.50;6.47;;;0.50;99.90;;;;;;6221456;23;20005;-77
2022/02/13 08:19:06;;;;;;;12.52;6.50;;;0.60;99.90;;;;;;6223304;23;20004;-77
2022/02/13 08:21:34;;;;;;;11.55;6.70;;;0.60;99.90;;;;;;6221906;23;20055;-78
2022/02/13 08:24:00;;;;;;;15.43;6.85;;;0.60;99.90;;;;;;6219998;23;20013;-78
2022/02/13 08:26:29;;;;;;;12.73;6.53;;;0.60;99.90;;;;;;6221149;23;20024;-78
2022/02/13 08:28:59;;;;;;;13.18;6.18;;;0.70;99.90;;;;;;6219796;23;20029;-78
2022/02/13 08:31:25;;;;;;;9.07;6.20;;;0.80;99.90;;;;;;6224136;23;20084;-80
2022/02/13 08:33:50;;;;;;;9.77;6.50;;;0.90;99.90;;;;;;6224013;23;20004;-82
2022/02/13 08:36:19;;;;;;;11.75;6.40;;;0.90;99.90;;;;;;6225082;23;20380;-81
2022/02/13 08:38:47;;;;;;;11.20;6.18;;;0.90;99.90;;;;;;6222875;23;20019;-82
2022/02/13 08:41:13;;;;;;;14.57;7.47;;;1.00;99.90;;;;;;6224308;23;20000;-82
2022/02/13 08:43:42;;;;;;;13.35;7.72;;;1.10;99.90;;;;;;6225503;23;20027;-81
2022/02/13 08:46:10;;;;;;;11.32;6.70;;;1.20;99.90;;;;;;6222321;23;20055;-82
2022/02/13 08:49:01;;;;;;;12.48;7.18;;;1.30;99.90;;;;;;6224334;23;20005;-84
2022/02/13 08:52:39;;;;;;;10.55;6.03;;;1.50;99.90;;;;;;6228170;23;20031;-84
2022/02/13 08:55:08;;;;;;;11.15;6.05;;;1.70;99.90;;;;;;6217769;23;20064;-84
2022/02/13 08:57:34;;;;;;;11.23;5.82;;;1.90;99.90;;;;;;6228620;23;20012;-86
2022/02/13 09:00:06;;;;;;;10.52;6.35;;;2.10;99.90;;;;;;6222410;23;20009;-86
2022/02/13 09:02:32;;;;;;;12.88;6.63;;;2.40;99.90;;;;;;6220924;23;20005;-85
2022/02/13 09:04:58;;;;;;;10.35;6.32;;;2.70;99.90;;;;;;6217795;23;20005;-80
2022/02/13 09:07:23;;;;;;;10.32;5.55;;;2.90;99.90;;;;;;6214971;23;20075;-79
2022/02/13 09:09:52;;;;;;;12.85;6.18;;;3.10;99.90;;;;;;6215326;23;19992;-79
2022/02/13 09:12:19;;;;;;;11.63;6.00;;;3.30;99.90;;;;;;6215979;23;20005;-79
2022/02/13 09:14:48;;;;;;;9.32;5.22;;;3.50;99.90;;;;;;6216886;23;20004;-79
2022/02/13 09:17:14;;;;;;;9.60;5.35;;;3.60;99.90;;;;;;6215579;23;20036;-80
2022/02/13 09:19:43;;;;;;;9.20;5.60;;;3.80;99.90;;;;;;6215651;23;20008;-79
2022/02/13 09:22:08;;;;;;;11.70;6.05;;;4.00;99.90;;;;;;6215971;23;20032;-80
2022/02/13 09:24:37;;;;;;;9.18;5.43;;;4.10;99.90;;;;;;6216971;23;20027;-80
2022/02/13 09:27:05;;;;;;;13.73;6.68;;;4.30;99.90;;;;;;6217453;23;20000;-79
2022/02/13 09:29:31;;;;;;;10.00;5.72;;;4.50;99.90;;;;;;6214703;23;20008;-79
2022/02/13 09:32:00;;;;;;;10.57;5.95;;;4.50;99.90;;;;;;6216889;23;20431;-80
2022/02/13 09:34:28;;;;;;;11.35;5.50;;;4.70;99.90;;;;;;6216880;23;20001;-80
2022/02/13 09:36:55;;;;;;;16.33;6.82;;;4.80;99.30;;;;;;6215920;23;20027;-80
2022/02/13 09:39:23;;;;;;;10.60;5.45;;;5.10;98.90;;;;;;6217031;23;20019;-79
2022/02/13 09:41:50;;;;;;;11.85;5.88;;;5.20;97.90;;;;;;6214908;23;20004;-80
2022/02/13 09:44:20;;;;;;;10.38;5.57;;;5.40;97.40;;;;;;6212271;23;20083;-80
2022/02/13 09:46:46;;;;;;;12.57;5.32;;;5.70;96.80;;;;;;6211922;23;20070;-81
2022/02/13 09:49:15;;;;;;;9.25;5.38;;;6.20;96.00;;;;;;6213941;23;20004;-80
2022/02/13 09:51:40;;;;;;;11.38;5.65;;;7.40;93.70;;;;;;6213081;23;20030;-80
2022/02/13 09:54:06;;;;;;;12.05;5.40;;;9.20;87.20;;;;;;6211364;23;20001;-80
2022/02/13 09:56:34;;;;;;;9.40;5.70;;;10.50;78.70;;;;;;6211602;23;20024;-80
2022/02/13 09:59:00;;;;;;;13.85;6.47;;;11.80;71.90;;;;;;6211983;23;20146;-81
2022/02/13 10:01:39;;;;;;;9.32;5.57;;;12.70;60.90;;;;;;6211598;23;20447;-80
2022/02/13 10:04:22;;;;;;;9.77;6.15;;;14.20;57.30;;;;;;6211593;23;20004;-81
2022/02/13 10:06:47;;;;;;;9.40;6.35;;;15.00;53.70;;;;;;6213556;23;20055;-81
2022/02/13 10:09:13;;;;;;;11.45;5.57;;;14.50;50.70;;;;;;6211189;23;20008;-81
2022/02/13 10:11:45;;;;;;;8.15;5.22;;;15.10;49.90;;;;;;6211038;23;20070;-81
2022/02/13 10:14:15;;;;;;;8.20;5.30;;;16.00;49.30;;;;;;6211377;23;20073;-81
2022/02/13 10:16:40;;;;;;;11.50;5.45;;;15.80;48.00;;;;;;6211449;23;20339;-80
2022/02/13 10:19:17;;;;;;;9.00;5.07;;;17.10;46.40;;;;;;6210427;23;20011;-81
2022/02/13 10:21:56;;;;;;;13.05;5.13;;;18.30;44.70;;;;;;6212556;23;19997;-80
2022/02/13 10:24:40;;;;;;;8.63;5.75;;;17.90;43.90;;;;;;6211588;23;20076;-81
2022/02/13 10:27:17;;;;;;;8.32;5.15;;;14.20;48.60;;;;;;6211547;23;20008;-81
2022/02/13 10:29:57;;;;;;;13.27;5.18;;;15.20;47.80;;;;;;6210956;23;20015;-82
2022/02/13 10:32:33;;;;;;;7.78;4.60;;;15.60;47.80;;;;;;6211448;23;20387;-80
2022/02/13 10:35:04;;;;;;;7.22;4.50;;;16.80;46.50;;;;;;6210772;23;20031;-80
2022/02/13 10:37:58;;;;;;;7.38;4.78;;;16.40;46.60;;;;;;6212324;23;20035;-81
2022/02/13 10:40:26;;;;;;;8.57;5.35;;;17.10;44.30;;;;;;6216121;23;20001;-86
2022/02/13 10:43:18;;;;;;;10.43;5.15;;;17.40;43.60;;;;;;6225013;23;20001;-85
2022/02/13 10:45:44;;;;;;;8.02;4.47;;;16.30;46.70;;;;;;6224437;23;20012;-86
2022/02/13 10:48:11;;;;;;;9.73;5.32;;;16.70;45.50;;;;;;6224730;23;20370;-86
2022/02/13 10:50:40;;;;;;;8.52;4.82;;;17.70;43.70;;;;;;6225145;23;20024;-85
2022/02/13 10:53:13;;;;;;;6.78;4.90;;;18.60;41.00;;;;;;6225224;23;20000;-84
2022/02/13 10:55:40;;;;;;;6.95;4.97;;;16.40;43.40;;;;;;6223994;23;20020;-85
2022/02/13 10:58:09;;;;;;;7.55;5.20;;;16.60;43.60;;;;;;6222324;23;20015;-85
2022/02/13 11:00:37;;;;;;;7.75;5.00;;;16.40;42.90;;;;;;6198083;23;20005;-85
2022/02/13 11:10:01;;;;;;;7.55;4.60;;;17.70;42.80;;;;;;6225550;23;20023;-86
2022/02/13 11:12:28;;;;;;;7.13;4.40;;;18.60;40.50;;;;;;6224522;23;20012;-85
2022/02/13 11:15:18;;;;;;;6.88;4.30;;;17.10;40.20;;;;;;6224248;23;20456;-85
2022/02/13 11:17:49;;;;;;;7.60;4.10;;;17.20;42.40;;;;;;6220117;23;20004;-86
2022/02/13 11:20:18;;;;;;;8.25;4.68;;;17.90;40.00;;;;;;6215536;23;20001;-81
2022/02/13 11:22:53;;;;;;;4.60;3.90;;;18.20;40.40;;;;;;6213841;23;20236;-81
2022/02/13 11:25:48;;;;;;;5.72;3.90;;;18.20;38.50;;;;;;6212249;23;20482;-82
2022/02/13 11:28:16;;;;;;;7.95;4.47;;;18.70;39.60;;;;;;6212893;23;20000;-81
2022/02/13 11:30:44;;;;;;;6.93;4.00;;;19.60;37.70;;;;;;6211832;23;20004;-81
2022/02/13 11:33:11;;;;;;;6.82;3.92;;;18.80;39.60;;;;;;6212302;23;20151;-79
2022/02/13 11:36:04;;;;;;;6.85;4.18;;;18.70;39.40;;;;;;6210246;23;20036;-80
2022/02/13 11:38:46;;;;;;;4.45;3.53;;;18.70;38.70;;;;;;6209191;23;20020;-80
2022/02/13 11:41:12;;;;;;;6.30;3.72;;;17.70;42.60;;;;;;6209834;23;20013;-80
2022/02/13 11:44:04;;;;;;;9.02;4.68;;;16.90;41.60;;;;;;6210036;23;20008;-81
2022/02/13 11:46:30;;;;;;;6.05;3.83;;;15.10;42.40;;;;;;6213452;23;20023;-80
2022/02/13 11:49:11;;;;;;;7.05;3.75;;;14.00;45.40;;;;;;6211076;23;20004;-81
2022/02/13 11:51:46;;;;;;;9.85;4.03;;;14.40;46.10;;;;;;6213538;23;20478;-80
2022/02/13 11:54:47;;;;;;;6.93;4.47;;;12.70;46.80;;;;;;6211194;23;20419;-80
2022/02/13 11:57:19;;;;;;;6.05;3.85;;;13.10;48.30;;;;;;6211271;23;20009;-80
2022/02/13 11:59:51;;;;;;;5.43;3.88;;;13.60;47.90;;;;;;6212713;23;20009;-80
2022/02/13 12:02:41;;;;;;;6.88;3.80;;;13.70;47.10;;;;;;6210855;23;20051;-80
2022/02/13 12:05:11;;;;;;;7.30;3.77;;;14.10;47.10;;;;;;6213149;23;20011;-80
2022/02/13 12:07:54;;;;;;;5.07;3.50;;;14.70;46.50;;;;;;6210068;23;20251;-80
2022/02/13 12:10:29;;;;;;;6.45;4.18;;;15.60;43.60;;;;;;6211659;23;20036;-80
2022/02/13 12:13:12;;;;;;;7.15;3.63;;;14.70;44.60;;;;;;6213042;23;20308;-81
2022/02/13 12:15:38;;;;;;;7.30;4.38;;;14.90;43.40;;;;;;6213339;23;20051;-80
2022/02/13 12:18:12;;;;;;;8.15;3.80;;;13.80;44.80;;;;;;6210544;23;20095;-80
2022/02/13 12:20:44;;;;;;;7.72;3.95;;;14.00;44.50;;;;;;6211426;23;20008;-81
2022/02/13 12:23:15;;;;;;;6.38;3.20;;;14.80;45.30;;;;;;6212744;23;20013;-81
2022/02/13 12:25:46;;;;;;;6.57;3.20;;;15.50;42.20;;;;;;6212534;23;20008;-81
2022/02/13 12:28:15;;;;;;;5.13;3.47;;;15.30;45.60;;;;;;6210393;23;20041;-81
2022/02/13 12:30:49;;;;;;;5.72;3.40;;;15.50;43.80;;;;;;6211953;23;20079;-80
2022/02/13 12:33:17;;;;;;;7.43;4.07;;;15.90;43.00;;;;;;6216427;23;19997;-81
2022/02/13 12:35:42;;;;;;;5.80;3.45;;;15.60;43.20;;;;;;6212186;23;20005;-81
2022/02/13 12:38:08;;;;;;;6.63;3.72;;;15.10;44.00;;;;;;6211509;23;20349;-80
2022/02/13 12:40:38;;;;;;;7.00;4.18;;;14.80;44.60;;;;;;6210417;23;20105;-81
2022/02/13 12:43:08;;;;;;;6.07;3.78;;;14.90;46.10;;;;;;6213090;23;20011;-80
2022/02/13 12:45:36;;;;;;;5.25;3.72;;;15.00;45.00;;;;;;6216537;23;20007;-82
2022/02/13 12:48:12;;;;;;;5.43;3.72;;;15.30;45.20;;;;;;6224772;23;20313;-86
2022/02/13 12:50:53;;;;;;;4.55;3.60;;;14.30;44.00;;;;;;6223115;23;20011;-86
2022/02/13 12:53:30;;;;;;;7.13;4.25;;;14.30;48.20;;;;;;6200017;23;20001;-86
2022/02/13 12:56:01;;;;;;;8.05;4.68;;;14.40;46.00;;;;;;6225403;23;20027;-82
2022/02/13 12:58:34;;;;;;;9.30;4.65;;;14.20;45.90;;;;;;6213876;23;20016;-81
2022/02/13 13:01:02;;;;;;;6.90;4.53;;;14.00;47.00;;;;;;6221400;23;20351;-83
2022/02/13 13:03:34;;;;;;;8.10;4.53;;;13.90;46.60;;;;;;6224751;23;20011;-84
2022/02/13 13:06:04;;;;;;;6.32;4.35;;;13.90;47.00;;;;;;6225406;23;20444;-84
2022/02/13 13:08:57;;;;;;;8.13;4.30;;;13.70;46.80;;;;;;6224103;23;20000;-84
2022/02/13 13:11:32;;;;;;;7.07;4.25;;;13.90;47.00;;;;;;6200712;23;20000;-84
2022/02/13 13:14:20;;;;;;;6.25;4.13;;;13.80;47.70;;;;;;6221524;23;20004;-84
2022/02/13 13:16:46;;;;;;;11.20;5.60;;;13.60;49.80;;;;;;6224219;23;20032;-85
2022/02/13 13:19:25;;;;;;;9.18;4.43;;;13.00;48.20;;;;;;6223402;23;20000;-83
2022/02/13 13:21:55;;;;;;;10.48;4.50;;;12.70;50.60;;;;;;6219304;23;20016;-83
2022/02/13 13:24:26;;;;;;;7.75;4.60;;;12.50;51.90;;;;;;6223175;23;20007;-84
2022/02/13 13:27:11;;;;;;;;;;;12.50;52.10;;;;;;6226479;23;20005;-84
2022/02/13 13:29:43;;;;;;;11.73;4.15;;;12.70;50.60;;;;;;6225748;23;19919;-86
2022/02/13 13:32:21;;;;;;;6.55;4.03;;;13.00;51.90;;;;;;6225161;23;20000;-84
2022/02/13 13:34:58;;;;;;;8.93;4.45;;;13.10;51.40;;;;;;6227022;23;20403;-86
2022/02/13 13:37:54;;;;;;;5.97;3.55;;;13.30;52.20;;;;;;6227249;23;20020;-86
2022/02/13 13:40:52;;;;;;;6.30;4.38;;;13.20;53.50;;;;;;6226433;23;20760;-86
2022/02/13 13:43:18;;;;;;;8.63;4.07;;;13.10;51.40;;;;;;6216977;23;20012;-86
2022/02/13 13:45:44;;;;;;;7.78;3.53;;;13.20;52.90;;;;;;6225422;23;20015;-85
2022/02/13 13:48:15;;;;;;;7.28;4.35;;;13.20;50.90;;;;;;6225333;23;20339;-84
2022/02/13 13:50:48;;;;;;;6.25;4.32;;;13.00;51.70;;;;;;6222184;23;20092;-86
2022/02/13 13:53:27;;;;;;;6.85;3.83;;;12.80;52.20;;;;;;6226132;23;20004;-85
2022/02/13 13:55:56;;;;;;;7.47;4.00;;;13.00;52.20;;;;;;6201079;23;20009;-84
2022/02/13 13:58:21;;;;;;;10.95;5.22;;;12.70;51.60;;;;;;6226675;23;20000;-83
2022/02/13 14:00:50;;;;;;;6.50;4.18;;;12.40;52.70;;;;;;6223094;23;20011;-84
2022/02/13 14:03:20;;;;;;;5.95;4.05;;;12.10;53.20;;;;;;6225130;23;20396;-85
2022/02/13 14:05:46;;;;;;;8.48;3.90;;;12.00;53.80;;;;;;6224566;23;20093;-84
2022/02/13 14:08:12;;;;;;;8.70;4.57;;;12.00;55.40;;;;;;6221686;23;20060;-83
2022/02/13 14:10:43;;;;;;;5.18;3.42;;;11.80;54.20;;;;;;6218539;23;20035;-85
2022/02/13 14:13:10;;;;;;;7.55;3.90;;;11.70;55.00;;;;;;6226903;23;20005;-85
2022/02/13 14:15:36;;;;;;;8.35;4.20;;;12.00;54.60;;;;;;6225564;23;20096;-84
2022/02/13 14:18:05;;;;;;;7.03;3.58;;;11.80;56.20;;;;;;6223974;23;20004;-84
2022/02/13 14:20:32;;;;;;;6.68;3.97;;;12.00;55.60;;;;;;6223979;23;20012;-85
2022/02/13 14:23:03;;;;;;;7.22;3.50;;;11.60;55.20;;;;;;6224542;23;20020;-83
2022/02/13 14:25:30;;;;;;;7.43;3.72;;;11.70;55.20;;;;;;6224397;23;20108;-84
2022/02/13 14:27:56;;;;;;;6.63;4.40;;;11.60;55.70;;;;;;6220924;23;20050;-84
2022/02/13 14:30:24;;;;;;;5.85;3.70;;;11.60;56.00;;;;;;6224035;23;20375;-84
2022/02/13 14:32:50;;;;;;;10.32;4.15;;;11.50;55.10;;;;;;6224536;23;20004;-86
2022/02/13 14:35:22;;;;;;;7.25;3.88;;;11.00;56.30;;;;;;6228017;23;20005;-84
2022/02/13 14:37:51;;;;;;;9.60;4.20;;;10.80;56.60;;;;;;6229329;23;20004;-84
2022/02/13 14:40:26;;;;;;;11.38;3.97;;;10.70;56.80;;;;;;6228535;23;20001;-85
2022/02/13 14:42:51;;;;;;;7.93;3.97;;;10.60;58.20;;;;;;6223380;23;20064;-85
2022/02/13 14:45:41;;;;;;;5.20;3.60;;;10.80;57.60;;;;;;6230494;23;20015;-86
2022/02/13 14:48:16;;;;;;;5.03;3.30;;;10.60;59.00;;;;;;6232072;23;20004;-86
2022/02/13 14:50:45;;;;;;;5.38;3.25;;;10.60;58.30;;;;;;6233371;23;19985;-85
2022/02/13 14:53:12;;;;;;;6.03;3.30;;;10.70;58.50;;;;;;6230810;23;20004;-84
2022/02/13 14:55:39;;;;;;;6.90;3.22;;;10.60;59.50;;;;;;6229188;23;20084;-84
2022/02/13 14:58:07;;;;;;;6.88;3.72;;;10.70;59.10;;;;;;6227786;23;20026;-85
2022/02/13 15:00:33;;;;;;;7.03;3.80;;;10.40;58.60;;;;;;6203714;23;20458;-86
2022/02/13 15:03:01;;;;;;;7.55;3.63;;;10.30;60.30;;;;;;6227790;23;20083;-84
2022/02/13 15:05:28;;;;;;;5.47;3.60;;;10.30;59.80;;;;;;6227847;23;20008;-86
2022/02/13 15:07:54;;;;;;;6.30;3.08;;;10.20;60.20;;;;;;6222568;23;20431;-79
2022/02/13 15:10:19;;;;;;;5.53;3.10;;;10.10;60.80;;;;;;6222565;23;20082;-84
2022/02/13 15:12:48;;;;;;;9.55;3.53;;;10.10;61.90;;;;;;6224600;23;20442;-83
2022/02/13 15:15:16;;;;;;;5.85;3.40;;;10.00;62.00;;;;;;6225515;23;20004;-85
2022/02/13 15:17:42;;;;;;;9.23;4.18;;;10.00;62.10;;;;;;6224622;23;20427;-85
2022/02/13 15:20:10;;;;;;;5.40;3.72;;;10.00;62.00;;;;;;6224298;23;20016;-84
2022/02/13 15:22:35;;;;;;;7.80;3.53;;;9.90;62.40;;;;;;6224184;23;20000;-83
2022/02/13 15:25:04;;;;;;;6.75;3.83;;;9.70;63.30;;;;;;6226743;23;20031;-85
2022/02/13 15:27:30;;;;;;;6.07;3.17;;;9.60;63.90;;;;;;6225890;23;20008;-83
2022/02/13 15:29:58;;;;;;;7.95;3.53;;;9.50;64.90;;;;;;6224655;23;20008;-85
2022/02/13 15:32:24;;;;;;;7.97;3.67;;;9.40;65.20;;;;;;6228275;23;20439;-84
2022/02/13 15:34:50;;;;;;;8.73;3.30;;;9.40;65.40;;;;;;6229724;23;20012;-84
2022/02/13 15:37:19;;;;;;;5.63;3.40;;;9.40;66.00;;;;;;6228819;23;20005;-84
2022/02/13 15:39:45;;;;;;;8.43;3.45;;;9.30;66.50;;;;;;6227744;23;20012;-86
2022/02/13 15:42:10;;;;;;;7.57;3.50;;;9.30;66.80;;;;;;6223854;23;20068;-84
2022/02/13 15:44:36;;;;;;;7.53;3.92;;;9.20;66.90;;;;;;6219698;23;20346;-81
2022/02/13 15:47:08;;;;;;;8.98;3.92;;;9.20;67.30;;;;;;6223186;23;20394;-86
2022/02/13 15:49:34;;;;;;;4.75;3.30;;;9.20;67.80;;;;;;6228310;23;20005;-86
2022/02/13 15:52:00;;;;;;;5.32;3.53;;;9.10;68.50;;;;;;6224186;23;20003;-86
2022/02/13 15:54:25;;;;;;;7.03;3.60;;;9.10;68.50;;;;;;6214009;23;20083;-83
2022/02/13 15:56:51;;;;;;;9.25;4.28;;;9.10;68.90;;;;;;6214651;23;20039;-85
2022/02/13 15:59:16;;;;;;;10.48;4.50;;;9.00;68.80;;;;;;6215064;23;20055;-85
2022/02/13 16:01:42;;;;;;;8.30;3.80;;;8.90;69.70;;;;;;6217096;23;20031;-86
2022/02/13 16:04:08;;;;;;;8.82;3.78;;;8.90;69.60;;;;;;6219092;23;20005;-85
2022/02/13 16:06:33;;;;;;;6.53;3.25;;;8.80;70.00;;;;;;6220202;23;20005;-86
2022/02/13 16:08:59;;;;;;;6.47;3.78;;;8.70;70.30;;;;;;6219535;23;20007;-85
2022/02/13 16:11:24;;;;;;;6.95;3.70;;;8.70;70.70;;;;;;6221383;23;20061;-87
2022/02/13 16:13:50;;;;;;;5.13;3.35;;;8.60;70.90;;;;;;6220298;23;20008;-87
2022/02/13 16:16:16;;;;;;;5.43;3.33;;;8.60;71.60;;;;;;6218882;23;20012;-86
2022/02/13 16:18:44;;;;;;;5.38;3.17;;;8.50;71.80;;;;;;6220392;23;20001;-86
2022/02/13 16:21:10;;;;;;;4.78;2.92;;;8.50;72.60;;;;;;6218106;23;20489;-85
2022/02/13 16:26:19;;;;;;;8.57;3.92;;;8.30;74.80;;;;;;6219987;23;20039;-85
2022/02/13 16:28:45;;;;;;;4.50;3.22;;;8.20;75.20;;;;;;6218790;23;20000;-86
2022/02/13 16:31:11;;;;;;;9.73;3.45;;;8.20;76.10;;;;;;6218866;23;20000;-85
2022/02/13 16:33:38;;;;;;;9.52;4.00;;;8.10;76.30;;;;;;6222341;23;20452;-86
2022/02/13 16:36:04;;;;;;;3.95;3.33;;;8.10;76.80;;;;;;6219100;23;20007;-85
2022/02/13 16:38:30;;;;;;;5.38;3.35;;;8.00;77.40;;;;;;6217856;23;20012;-84
2022/02/13 16:40:58;;;;;;;7.78;3.45;;;7.90;78.00;;;;;;6217669;23;20016;-84
2022/02/13 16:43:24;;;;;;;8.73;3.90;;;7.80;78.90;;;;;;6220448;23;20001;-85
2022/02/13 16:45:49;;;;;;;6.05;3.20;;;7.80;79.90;;;;;;6218439;23;20015;-86
2022/02/13 16:48:15;;;;;;;5.90;3.72;;;7.70;80.20;;;;;;6219983;23;20018;-86
2022/02/13 16:50:41;;;;;;;6.45;4.00;;;7.70;81.00;;;;;;6219077;23;20020;-84
2022/02/13 16:53:06;;;;;;;9.50;4.55;;;7.70;81.70;;;;;;6220377;23;20364;-86
2022/02/13 16:55:32;;;;;;;7.63;3.83;;;7.70;82.50;;;;;;6220320;23;20004;-85
2022/02/13 16:57:58;;;;;;;11.25;4.20;;;7.70;83.00;;;;;;6219062;23;20032;-85
2022/02/13 17:00:23;;;;;;;13.73;4.32;;;7.70;83.80;;;;;;6220445;23;20000;-86
2022/02/13 17:02:49;;;;;;;9.15;4.30;;;7.70;84.30;;;;;;6219869;23;20013;-84
2022/02/13 17:05:15;;;;;;;9.18;4.40;;;7.70;85.20;;;;;;6220138;23;20001;-84
2022/02/13 17:07:41;;;;;;;8.77;4.18;;;7.70;85.80;;;;;;6221241;23;20076;-86
2022/02/13 17:10:07;;;;;;;8.02;4.35;;;7.70;87.00;;;;;;6221913;23;19997;-86
2022/02/13 17:12:33;;;;;;;11.93;4.32;;;7.70;87.40;;;;;;6219881;23;20015;-86
2022/02/13 17:14:58;;;;;;;7.93;4.30;;;7.70;88.40;;;;;;6221285;23;19997;-85
2022/02/13 17:17:24;;;;;;;10.40;5.00;;;7.70;89.40;;;;;;6220502;23;20028;-84
2022/02/13 17:19:49;;;;;;;9.50;4.75;;;7.60;90.10;;;;;;6220217;23;20012;-84
2022/02/13 17:22:16;;;;;;;7.97;4.00;;;7.60;90.60;;;;;;6219841;23;20066;-80
2022/02/13 17:24:42;;;;;;;8.15;5.03;;;7.60;90.90;;;;;;6221284;23;20004;-84
2022/02/13 17:27:08;;;;;;;8.85;4.68;;;7.50;91.50;;;;;;6221686;23;20036;-84
2022/02/13 17:29:33;;;;;;;14.25;5.13;;;7.50;92.00;;;;;;6220408;23;20004;-85
2022/02/13 17:31:59;;;;;;;10.55;4.68;;;7.50;92.70;;;;;;6219721;23;20070;-83
2022/02/13 17:34:24;;;;;;;10.52;4.63;;;7.50;92.90;;;;;;6219569;23;20028;-80
2022/02/13 17:36:51;;;;;;;10.60;4.40;;;7.40;93.20;;;;;;6220339;23;19996;-80
2022/02/13 17:39:17;;;;;;;9.93;4.00;;;7.40;93.40;;;;;;6219195;23;20018;-80
2022/02/13 17:41:42;;;;;;;8.98;5.07;;;7.40;93.80;;;;;;6218759;23;20012;-80
2022/02/13 17:44:08;;;;;;;9.98;5.50;;;7.40;94.00;;;;;;6220535;23;20001;-80
2022/02/13 17:46:35;;;;;;;14.63;6.05;;;7.40;94.20;;;;;;6219020;23;20469;-80
2022/02/13 17:49:01;;;;;;;8.68;4.65;;;7.40;94.60;;;;;;6219999;23;20008;-80
2022/02/13 17:51:28;;;;;;;8.27;4.80;;;7.40;94.60;;;;;;6220467;23;19997;-80
2022/02/13 17:53:55;;;;;;;11.77;6.00;;;7.40;94.90;;;;;;6218894;23;20024;-80
2022/02/13 17:56:21;;;;;;;11.35;5.60;;;7.40;95.50;;;;;;6220248;23;20001;-80
2022/02/13 17:58:46;;;;;;;8.38;4.60;;;7.40;95.80;;;;;;6219878;23;20076;-81
2022/02/13 18:01:12;;;;;;;11.98;5.10;;;7.40;96.50;;;;;;6219228;23;20004;-79
2022/02/13 18:03:38;;;;;;;7.95;4.47;;;7.40;96.90;;;;;;6218290;23;20131;-79
2022/02/13 18:06:03;;;;;;;10.73;4.80;;;7.40;97.30;;;;;;6218265;23;20055;-79
2022/02/13 18:08:29;;;;;;;13.50;5.57;;;7.40;97.90;;;;;;6219320;23;20479;-81
2022/02/13 18:10:55;;;;;;;8.00;5.35;;;7.50;98.30;;;;;;6220144;23;19996;-81
2022/02/13 18:13:21;;;;;;;9.35;5.35;;;7.50;98.70;;;;;;6220607;23;20012;-81
2022/02/13 18:15:47;;;;;;;10.68;5.57;;;7.50;99.50;;;;;;6223504;23;20001;-81
2022/02/13 18:18:13;;;;;;;10.35;5.38;;;7.50;99.90;;;;;;6221996;23;20035;-83
2022/02/13 18:20:39;;;;;;;10.18;5.93;;;7.50;99.90;;;;;;6223680;23;20009;-79
2022/02/13 18:23:06;;;;;;;12.52;5.50;;;7.40;99.90;;;;;;6224993;23;20004;-82
2022/02/13 18:25:33;;;;;;;9.52;5.70;;;7.50;99.90;;;;;;6225722;23;20387;-82
2022/02/13 18:27:58;;;;;;;10.57;5.82;;;7.50;99.90;;;;;;6223558;23;20009;-82
2022/02/13 18:30:25;;;;;;;8.40;5.38;;;7.50;99.90;;;;;;6218671;23;20031;-81
2022/02/13 18:32:51;;;;;;;12.27;5.63;;;7.50;99.90;;;;;;6221229;23;20027;-82
2022/02/13 18:35:17;;;;;;;9.80;5.47;;;7.50;99.90;;;;;;6222180;23;20024;-81
2022/02/13 18:37:43;;;;;;;10.05;5.07;;;7.50;99.90;;;;;;6220070;23;20001;-81
2022/02/13 18:40:10;;;;;;;11.18;6.20;;;7.50;99.90;;;;;;6221711;23;19997;-81
2022/02/13 18:42:36;;;;;;;13.02;5.65;;;7.40;99.90;;;;;;6219572;23;20061;-81
2022/02/13 18:45:02;;;;;;;9.43;5.80;;;7.30;99.90;;;;;;6218802;23;20000;-79
2022/02/13 18:47:27;;;;;;;11.00;5.88;;;7.30;99.90;;;;;;6218971;23;20050;-79
2022/02/13 18:49:53;;;;;;;13.82;6.45;;;7.30;99.90;;;;;;6220172;23;20175;-80
2022/02/13 18:52:19;;;;;;;13.32;6.43;;;7.30;99.90;;;;;;6220669;23;20003;-80
2022/02/13 18:54:44;;;;;;;13.90;6.10;;;7.20;99.90;;;;;;6216568;23;20035;-80
2022/02/13 18:57:10;;;;;;;11.20;6.53;;;7.10;99.90;;;;;;6213625;23;20032;-80
2022/02/13 18:59:36;;;;;;;11.63;6.60;;;7.10;99.90;;;;;;6216881;23;20435;-79
2022/02/13 19:02:05;;;;;;;15.63;6.40;;;7.00;99.90;;;;;;6216406;23;20570;-80
2022/02/13 19:04:32;;;;;;;16.30;6.95;;;7.00;99.90;;;;;;6188706;23;20100;-82
2022/02/13 19:07:03;;;;;;;13.48;7.35;;;6.90;99.90;;;;;;6189919;23;20012;-81
2022/02/13 19:09:31;;;;;;;16.73;7.53;;;6.90;99.90;;;;;;6189641;23;20000;-82
2022/02/13 19:12:00;;;;;;;12.05;7.40;;;6.80;99.90;;;;;;6196409;23;20084;-77
2022/02/13 19:14:25;;;;;;;23.75;8.65;;;6.80;99.90;;;;;;6195823;23;20005;-79
2022/02/13 19:16:51;;;;;;;14.82;7.20;;;6.70;99.90;;;;;;6190310;23;20595;-79
2022/02/13 19:19:17;;;;;;;18.42;7.45;;;6.70;99.90;;;;;;6187979;23;20005;-79
2022/02/13 19:21:43;;;;;;;15.32;7.00;;;6.70;99.90;;;;;;6188870;23;19993;-79
2022/02/13 19:24:09;;;;;;;15.23;6.95;;;6.70;99.90;;;;;;6191551;23;19997;-79
2022/02/13 19:29:19;;;;;;;11.43;7.35;;;6.60;99.90;;;;;;6191363;23;20012;-80
2022/02/13 19:31:44;;;;;;;10.48;6.47;;;6.60;99.90;;;;;;6192172;23;20001;-80
2022/02/13 19:34:10;;;;;;;17.67;6.53;;;6.60;99.90;;;;;;6193688;23;20001;-81
2022/02/13 19:36:36;;;;;;;16.25;6.97;;;6.60;99.90;;;;;;6193181;23;20302;-82
2022/02/13 19:39:05;;;;;;;12.75;6.38;;;6.60;99.90;;;;;;6196394;23;20447;-82
2022/02/13 19:41:31;;;;;;;13.33;6.63;;;6.60;99.90;;;;;;6199129;23;20092;-81
2022/02/13 19:43:59;;;;;;;13.75;6.68;;;6.50;99.90;;;;;;6190357;23;20021;-81
2022/02/13 19:46:26;;;;;;;12.57;7.15;;;6.40;99.90;;;;;;6194310;23;20451;-81
2022/02/13 19:48:52;;;;;;;17.25;7.75;;;6.40;99.90;;;;;;6188837;23;20088;-82
2022/02/13 19:51:19;;;;;;;16.58;7.50;;;6.40;99.90;;;;;;6188817;23;20001;-81
2022/02/13 19:53:48;;;;;;;11.32;7.28;;;6.40;99.90;;;;;;6188238;23;20005;-82
2022/02/13 19:56:14;;;;;;;13.07;7.60;;;6.40;99.90;;;;;;6191985;23;20032;-82
2022/02/13 19:58:42;;;;;;;13.85;7.70;;;6.40;99.90;;;;;;6192282;23;20009;-81
2022/02/13 20:01:08;;;;;;;21.85;7.65;;;6.40;99.90;;;;;;6192069;23;20332;-82
2022/02/13 20:03:34;;;;;;;11.93;6.90;;;6.40;99.90;;;;;;6192797;23;20005;-80
2022/02/13 20:06:00;;;;;;;12.85;7.15;;;6.30;99.90;;;;;;6190863;23;20444;-81
2022/02/13 20:08:25;;;;;;;17.83;7.18;;;6.30;99.90;;;;;;6191928;23;20005;-82
2022/02/13 20:10:51;;;;;;;18.33;9.52;;;6.30;99.90;;;;;;6191735;23;20001;-81
2022/02/13 20:13:21;;;;;;;12.52;6.80;;;6.30;99.90;;;;;;6189537;23;20076;-82
2022/02/13 20:15:50;;;;;;;13.60;7.53;;;6.30;99.90;;;;;;6189667;23;20056;-81
2022/02/13 20:18:18;;;;;;;13.20;7.57;;;6.30;99.90;;;;;;6189978;23;20425;-79
2022/02/13 20:20:46;;;;;;;10.70;6.53;;;6.30;99.90;;;;;;6189771;23;20005;-79
2022/02/13 20:23:12;;;;;;;10.35;7.22;;;6.30;99.90;;;;;;6192430;23;20005;-79
2022/02/13 20:25:41;;;;;;;16.40;7.93;;;6.30;99.90;;;;;;6189407;23;20020;-79
2022/02/13 20:28:09;;;;;;;11.88;7.15;;;6.20;99.90;;;;;;6189328;23;20104;-79
2022/02/13 20:30:35;;;;;;;12.43;6.97;;;6.20;99.90;;;;;;6190346;23;19997;-76
2022/02/13 20:33:04;;;;;;;17.80;7.30;;;6.20;99.90;;;;;;6186146;23;20601;-77
2022/02/13 20:35:30;;;;;;;12.45;6.07;;;6.20;99.90;;;;;;6193275;23;20048;-76
2022/02/13 20:37:55;;;;;;;17.98;7.32;;;6.20;99.90;;;;;;6188976;23;20005;-77
2022/02/13 20:40:21;;;;;;;11.50;6.65;;;6.20;99.90;;;;;;6190350;23;20012;-76
2022/02/13 20:42:51;;;;;;;10.93;6.05;;;6.10;99.90;;;;;;6190586;23;20024;-78
2022/02/13 20:45:18;;;;;;;12.45;6.63;;;6.10;99.90;;;;;;6193171;23;20005;-79
2022/02/13 20:47:44;;;;;;;11.35;6.97;;;6.20;99.90;;;;;;6190930;23;20005;-81
2022/02/13 20:50:10;;;;;;;12.25;6.80;;;6.10;99.90;;;;;;6193004;23;20012;-80
2022/02/13 20:52:35;;;;;;;13.48;7.43;;;6.20;99.90;;;;;;6191968;23;20332;-79
2022/02/13 20:55:03;;;;;;;12.82;6.68;;;6.20;99.90;;;;;;6190795;23;20005;-79
2022/02/13 20:57:28;;;;;;;13.82;6.63;;;6.30;99.90;;;;;;6189886;23;20044;-81
2022/02/13 20:59:54;;;;;;;12.43;6.60;;;6.40;99.90;;;;;;6193890;23;20008;-79
2022/02/13 21:02:20;;;;;;;15.73;5.90;;;6.40;99.90;;;;;;6190345;23;20020;-79
2022/02/13 21:04:46;;;;;;;8.80;5.60;;;6.50;99.90;;;;;;6192164;23;20016;-79
2022/02/13 21:07:11;;;;;;;11.82;6.40;;;6.60;99.90;;;;;;6192675;23;20005;-78
2022/02/13 21:09:37;;;;;;;14.13;6.03;;;6.60;99.90;;;;;;6190806;23;20076;-79
2022/02/13 21:12:03;;;;;;;12.90;5.95;;;6.80;99.90;;;;;;6189497;23;20547;-78
2022/02/13 21:14:28;;;;;;;12.73;6.63;;;6.80;99.90;;;;;;6190174;23;20008;-80
2022/02/13 21:16:54;;;;;;;11.93;6.00;;;6.80;99.90;;;;;;6188782;23;20013;-78